createdAt,value
2019-01-05T01:04:12.681Z,-4.50
2019-01-05T01:07:39.564Z,-4.64
2019-01-05T01:10:41.763Z,-4.40
2019-01-05T01:13:58.808Z,-4.81
2019-01-05T01:17:05.999Z,-4.70
2019-01-05T01:20:20.560Z,-4.63
2019-01-05T01:23:29.620Z,-4.58
2019-01-05T01:26:41.264Z,-4.95
2019-01-05T01:29:44.362Z,-5.32
2019-01-05T01:32:51.678Z,-5.12
2019-01-05T01:36:03.072Z,-5.10
2019-01-05T01:39:38.317Z,-5.04
2019-01-05T01:42:58.678Z,-5.05
2019-01-05T01:46:08.393Z,-4.83
2019-01-05T01:49:17.977Z,-4.85
2019-01-05T01:52:25.444Z,-4.59
2019-01-05T01:55:39.995Z,-5.05
2019-01-05T01:58:51.190Z,-4.82
2019-01-05T02:01:56.027Z,-4.78
2019-01-05T02:05:01.733Z,-5.12
2019-01-05T02:08:28.149Z,-4.82
2019-01-05T02:11:38.571Z,-4.64
2019-01-05T02:15:07.952Z,-4.59
2019-01-05T02:18:51.215Z,-4.55
2019-01-05T02:23:00.281Z,-4.38
2019-01-05T02:26:57.854Z,-4.49
2019-01-05T02:30:24.859Z,-4.79
2019-01-05T02:34:03.708Z,-5.09
2019-01-05T02:37:47.998Z,-4.84
2019-01-05T02:41:23.640Z,-4.62
2019-01-05T02:45:16.675Z,-4.50
2019-01-05T02:49:00.174Z,-4.48
2019-01-05T02:53:01.322Z,-4.46
2019-01-05T02:57:13.869Z,-4.28
2019-01-05T03:01:15.087Z,-4.59
2019-01-05T03:05:09.616Z,-4.97
2019-01-05T03:08:58.789Z,-4.64
2019-01-05T03:12:48.240Z,-5.07
2019-01-05T03:16:39.134Z,-4.86
2019-01-05T03:20:37.054Z,-4.82
2019-01-05T03:24:16.423Z,-5.02
2019-01-05T03:27:59.024Z,-5.07
2019-01-05T03:32:03.138Z,-4.96
2019-01-05T03:35:38.280Z,-4.83
2019-01-05T03:39:25.101Z,-4.59
2019-01-05T03:42:52.065Z,-4.74
2019-01-05T03:46:27.137Z,-4.81
2019-01-05T03:50:41.342Z,-4.92
2019-01-05T03:54:54.611Z,-5.01
2019-01-05T03:59:04.461Z,-4.83
2019-01-05T04:02:57.279Z,-4.90
2019-01-05T04:06:39.124Z,-4.54
2019-01-05T04:10:19.834Z,-4.38
2019-01-05T04:14:08.074Z,-4.35
2019-01-05T04:17:55.141Z,-4.40
2019-01-05T04:21:45.811Z,-4.39
2019-01-05T04:25:22.115Z,-4.51
2019-01-05T04:29:11.370Z,-4.54
2019-01-05T04:32:51.039Z,-4.55
2019-01-05T04:36:26.837Z,-4.63
2019-01-05T04:40:10.663Z,-5.00
2019-01-05T04:44:01.855Z,-4.83
2019-01-05T04:47:55.873Z,-5.19
2019-01-05T04:51:35.987Z,-5.03
2019-01-05T04:55:23.471Z,-4.82
2019-01-05T04:59:09.783Z,-4.75
2019-01-05T05:02:46.421Z,-4.78
2019-01-05T05:06:40.091Z,-4.63
2019-01-05T05:10:14.888Z,-4.45
2019-01-05T05:14:11.467Z,-4.54
2019-01-05T05:18:12.501Z,-4.52
2019-01-05T05:22:32.946Z,-4.53
2019-01-05T05:26:30.915Z,-4.44
2019-01-05T05:30:23.012Z,-4.73
2019-01-05T05:34:10.337Z,-4.97
2019-01-05T05:37:52.442Z,-5.19
2019-01-05T05:41:38.457Z,-5.08
2019-01-05T05:45:42.621Z,-5.09
2019-01-05T05:49:40.345Z,-5.36
2019-01-05T05:54:11.897Z,-5.07
2019-01-05T05:57:56.143Z,-4.96
2019-01-05T06:02:06.006Z,-4.98
2019-01-05T06:05:51.443Z,-4.97
2019-01-05T06:09:40.580Z,-4.73
2019-01-05T06:13:45.208Z,-4.54
2019-01-05T06:17:34.643Z,-4.50
2019-01-05T06:21:26.738Z,-4.53
2019-01-05T06:25:07.066Z,-4.52
2019-01-05T06:29:04.511Z,-4.28
2019-01-05T06:32:46.263Z,-4.24
2019-01-05T06:36:31.963Z,-4.39
2019-01-05T06:40:37.984Z,-4.74
2019-01-05T06:44:34.424Z,-4.97
2019-01-05T06:51:25.157Z,-4.30
2019-01-05T06:55:11.528Z,-4.14
2019-01-05T06:59:17.382Z,-4.07
2019-01-05T07:03:22.335Z,-4.76
2019-01-05T07:07:02.041Z,-4.31
2019-01-05T07:11:10.081Z,-4.96
2019-01-05T07:14:54.284Z,-4.86
2019-01-05T07:18:33.333Z,-4.88
2019-01-05T07:22:32.786Z,-5.01
2019-01-05T07:26:18.013Z,-4.99
2019-01-05T07:30:16.861Z,-5.13
2019-01-05T07:34:14.700Z,-5.19
2019-01-05T07:38:05.703Z,-4.54
2019-01-05T07:42:02.832Z,-4.97
2019-01-05T07:45:41.354Z,-5.35
2019-01-05T07:49:30.529Z,-4.95
2019-01-05T07:53:50.031Z,-4.77
2019-01-05T07:57:49.030Z,-4.37
2019-01-05T08:01:35.392Z,-4.77
2019-01-05T08:05:31.284Z,-5.15
2019-01-05T08:09:22.465Z,-4.50
2019-01-05T08:13:17.832Z,-4.32
2019-01-05T08:17:30.842Z,-4.41
2019-01-05T08:21:45.424Z,-4.16
2019-01-05T08:25:27.931Z,-4.24
2019-01-05T08:29:33.473Z,-4.07
2019-01-05T08:33:34.136Z,-3.85
2019-01-05T08:37:17.041Z,-4.25
2019-01-05T08:41:01.269Z,-4.44
2019-01-05T08:45:23.786Z,-4.44
2019-01-05T08:49:29.701Z,-4.21
2019-01-05T08:53:13.426Z,-4.18
2019-01-05T08:57:11.502Z,-4.18
2019-01-05T09:01:26.869Z,-4.11
2019-01-05T09:05:25.692Z,-3.75
2019-01-05T09:09:02.711Z,-3.86
2019-01-05T09:12:45.371Z,-3.76
2019-01-05T09:16:26.072Z,-3.32
2019-01-05T09:20:43.010Z,-3.34
2019-01-05T09:24:25.769Z,-3.00
2019-01-05T09:28:19.881Z,-2.98
2019-01-05T09:32:22.263Z,-3.38
2019-01-05T09:36:39.526Z,-3.20
2019-01-05T09:40:28.792Z,-3.28
2019-01-05T09:44:28.267Z,-3.56
2019-01-05T09:48:15.004Z,-4.05
2019-01-05T09:52:10.273Z,-4.54
2019-01-05T09:56:00.276Z,-3.85
2019-01-05T09:59:50.255Z,-3.97
2019-01-05T10:03:54.669Z,-3.91
2019-01-05T10:07:29.402Z,-3.61
2019-01-05T10:11:07.974Z,-3.59
2019-01-05T10:14:55.416Z,-3.60
2019-01-05T10:19:00.595Z,-3.14
2019-01-05T10:22:52.412Z,-3.65
2019-01-05T10:27:01.909Z,-3.82
2019-01-05T10:31:03.661Z,-3.63
2019-01-05T10:35:16.507Z,-3.57
2019-01-05T10:39:18.768Z,-3.39
2019-01-05T10:43:09.283Z,-2.92
2019-01-05T10:46:56.004Z,-2.90
2019-01-05T10:50:58.231Z,-3.02
2019-01-05T10:54:55.430Z,-3.11
2019-01-05T10:59:10.611Z,-2.75
2019-01-05T11:03:07.226Z,-2.24
2019-01-05T11:06:59.779Z,-1.94
2019-01-05T11:10:57.844Z,-1.90
2019-01-05T11:14:44.934Z,-1.88
2019-01-05T11:18:42.169Z,-2.20
2019-01-05T11:22:32.659Z,-1.89
2019-01-05T11:26:32.512Z,-3.01
2019-01-05T11:30:23.600Z,-2.99
2019-01-05T11:34:12.628Z,-2.39
2019-01-05T11:38:11.190Z,-2.09
2019-01-05T11:42:13.404Z,-3.15
2019-01-05T11:46:05.336Z,-3.10
2019-01-05T11:50:03.273Z,-2.81
2019-01-05T11:53:59.217Z,-2.70
2019-01-05T11:57:49.391Z,-2.19
2019-01-05T12:01:30.558Z,-2.10
2019-01-05T12:05:36.778Z,-1.91
2019-01-05T12:09:45.224Z,-1.66
2019-01-05T12:13:23.511Z,-2.31
2019-01-05T12:17:02.281Z,-1.94
2019-01-05T12:20:55.074Z,-1.35
2019-01-05T12:24:32.464Z,-0.89
2019-01-05T12:28:22.964Z,-0.57
2019-01-05T12:32:08.812Z,-0.55
2019-01-05T12:35:58.036Z,-0.50
2019-01-05T12:39:47.646Z,-0.47
2019-01-05T12:43:38.322Z,-0.49
2019-01-05T12:47:12.095Z,-0.62
2019-01-05T12:50:55.803Z,-0.96
2019-01-05T12:55:27.410Z,-0.96
2019-01-05T12:59:14.273Z,-1.16
2019-01-05T13:02:48.443Z,-1.53
2019-01-05T13:06:44.223Z,-1.59
2019-01-05T13:10:17.935Z,-1.89
2019-01-05T13:14:14.141Z,-2.04
2019-01-05T13:18:18.148Z,-1.96
2019-01-05T13:22:02.201Z,-1.50
2019-01-05T13:25:37.495Z,-1.11
2019-01-05T13:29:01.087Z,-0.73
2019-01-05T13:32:25.988Z,-0.50
2019-01-05T13:36:10.034Z,-0.77
2019-01-05T13:39:36.958Z,-0.43
2019-01-05T13:43:27.661Z,-0.46
2019-01-05T13:46:50.248Z,-0.30
2019-01-05T13:50:19.778Z,-0.43
2019-01-05T13:53:45.365Z,-0.54
2019-01-05T13:56:56.605Z,-0.71
2019-01-05T13:59:52.460Z,-0.69
2019-01-05T14:02:54.245Z,-0.90
2019-01-05T14:05:53.060Z,-0.70
2019-01-05T14:08:45.614Z,-0.60
2019-01-05T14:11:34.168Z,-0.92
2019-01-05T14:14:36.134Z,-1.03
2019-01-05T14:17:25.750Z,-1.04
2019-01-05T14:20:15.918Z,-1.12
2019-01-05T14:23:15.888Z,-1.13
2019-01-05T14:26:05.707Z,-1.39
2019-01-05T14:29:04.487Z,-1.78
2019-01-05T14:31:53.043Z,-1.64
2019-01-05T14:34:38.982Z,-1.78
2019-01-05T14:37:24.256Z,-1.97
2019-01-05T14:40:12.650Z,-2.11
2019-01-05T14:43:08.637Z,-2.07
2019-01-05T14:46:12.946Z,-2.28
2019-01-05T14:49:02.749Z,-2.24
2019-01-05T14:52:01.640Z,-2.48
2019-01-05T14:55:06.844Z,-2.80
2019-01-05T14:57:56.827Z,-3.34
2019-01-05T15:00:49.372Z,-3.80
2019-01-05T15:03:37.751Z,-4.20
2019-01-05T15:06:26.447Z,-4.13
2019-01-05T15:09:16.194Z,-4.10
2019-01-05T15:12:06.019Z,-4.29
2019-01-05T15:14:55.795Z,-4.32
2019-01-05T15:17:48.284Z,-4.34
2019-01-05T15:20:47.157Z,-4.44
2019-01-05T15:23:36.934Z,-4.42
2019-01-05T15:26:26.716Z,-4.27
2019-01-05T15:29:22.778Z,-4.36
2019-01-05T15:32:10.571Z,-4.36
2019-01-05T15:35:09.841Z,-4.61
2019-01-05T15:38:02.544Z,-4.78
2019-01-05T15:41:08.681Z,-5.38
2019-01-05T15:43:56.989Z,-5.45
2019-01-05T15:46:45.493Z,-5.89
2019-01-05T15:49:33.808Z,-5.66
2019-01-05T15:52:24.227Z,-5.69
2019-01-05T15:55:13.052Z,-5.76
2019-01-05T15:58:05.943Z,-5.80
2019-01-05T16:00:54.262Z,-5.64
2019-01-05T16:03:42.719Z,-5.68
2019-01-05T16:06:38.630Z,-5.70
2019-01-05T16:09:34.311Z,-5.79
2019-01-05T16:12:22.763Z,-5.74
2019-01-05T16:15:11.743Z,-5.65
2019-01-05T16:18:01.257Z,-5.78
2019-01-05T16:21:03.421Z,-5.73
2019-01-05T16:23:50.320Z,-5.66
2019-01-05T16:26:44.316Z,-5.64
2019-01-05T16:29:25.957Z,-5.71
2019-01-05T16:32:15.771Z,-5.91
2019-01-05T16:35:04.649Z,-6.40
2019-01-05T16:38:06.922Z,-6.70
2019-01-05T16:40:56.695Z,-6.70
2019-01-05T16:43:46.044Z,-6.82
2019-01-05T16:46:34.594Z,-7.17
2019-01-05T16:49:30.150Z,-7.32
2019-01-05T16:52:26.054Z,-7.29
2019-01-05T16:55:18.872Z,-7.66
2019-01-05T16:58:12.030Z,-7.52
2019-01-05T17:01:04.337Z,-7.62
2019-01-05T17:03:52.636Z,-7.51
2019-01-05T17:06:41.151Z,-7.52
2019-01-05T17:09:46.346Z,-7.37
2019-01-05T17:12:42.079Z,-7.53
2019-01-05T17:15:44.586Z,-7.96
2019-01-05T17:18:38.558Z,-8.53
2019-01-05T17:21:43.652Z,-8.32
2019-01-05T17:24:32.029Z,-7.91
2019-01-05T17:27:28.209Z,-7.48
2019-01-05T17:30:19.788Z,-7.59
2019-01-05T17:33:08.480Z,-7.64
2019-01-05T17:36:13.986Z,-7.64
2019-01-05T17:39:02.593Z,-7.81
2019-01-05T17:41:51.373Z,-7.68
2019-01-05T17:44:39.723Z,-7.65
2019-01-05T17:47:29.844Z,-8.20
2019-01-05T17:50:18.781Z,-8.30
2019-01-05T17:53:14.498Z,-8.96
2019-01-05T17:56:19.496Z,-9.47
2019-01-05T17:59:12.193Z,-9.96
2019-01-05T18:02:10.458Z,-9.77
2019-01-05T18:05:15.731Z,-9.82
2019-01-05T18:08:05.526Z,-10.09
2019-01-05T18:11:12.241Z,-9.79
2019-01-05T18:14:00.721Z,-9.87
2019-01-05T18:17:08.703Z,-9.87
2019-01-05T18:19:58.121Z,-9.89
2019-01-05T18:22:56.842Z,-10.06
2019-01-05T18:25:46.777Z,-9.73
2019-01-05T18:28:48.717Z,-9.73
2019-01-05T18:31:37.169Z,-9.45
2019-01-05T18:34:42.346Z,-9.04
2019-01-05T18:37:30.843Z,-9.60
2019-01-05T18:40:19.560Z,-10.77
2019-01-05T18:43:12.634Z,-10.77
2019-01-05T18:46:02.644Z,-11.41
2019-01-05T18:48:55.194Z,-12.05
2019-01-05T18:51:45.873Z,-12.07
2019-01-05T18:54:39.540Z,-12.18
2019-01-05T18:57:29.575Z,-12.09
2019-01-05T19:00:25.218Z,-11.80
2019-01-05T19:03:13.792Z,-11.36
2019-01-05T19:06:02.186Z,-11.11
2019-01-05T19:09:10.541Z,-11.18
2019-01-05T19:12:12.328Z,-10.64
2019-01-05T19:15:01.134Z,-10.38
2019-01-05T19:18:00.123Z,-10.05
2019-01-05T19:20:49.686Z,-10.13
2019-01-05T19:23:45.898Z,-10.40
2019-01-05T19:26:54.227Z,-10.40
2019-01-05T19:29:47.168Z,-10.67
2019-01-05T19:32:46.040Z,-10.69
2019-01-05T19:35:34.606Z,-10.74
2019-01-05T19:38:27.506Z,-10.97
2019-01-05T19:41:20.203Z,-10.97
2019-01-05T19:44:09.079Z,-11.44
2019-01-05T19:47:11.067Z,-11.90
2019-01-05T19:50:19.092Z,-12.53
2019-01-05T19:53:07.612Z,-12.58
2019-01-05T19:55:56.680Z,-12.72
2019-01-05T19:58:45.237Z,-12.72
2019-01-05T20:01:38.099Z,-12.48
2019-01-05T20:04:26.896Z,-12.06
2019-01-05T20:07:02.853Z,-12.26
2019-01-05T20:10:05.053Z,-12.64
2019-01-05T20:13:00.233Z,-12.74
2019-01-05T20:16:02.151Z,-12.74
2019-01-05T20:19:10.486Z,-12.58
2019-01-05T20:22:09.478Z,-12.42
2019-01-05T20:25:14.482Z,-12.12
2019-01-05T20:28:17.139Z,-12.37
2019-01-05T20:31:07.112Z,-12.99
2019-01-05T20:33:55.405Z,-12.99
2019-01-05T20:36:43.848Z,-13.50
2019-01-05T20:39:30.641Z,-13.55
2019-01-05T20:42:29.484Z,-13.73
2019-01-05T20:45:18.221Z,-13.76
2019-01-05T20:48:11.137Z,-13.13
2019-01-05T20:51:00.955Z,-12.72
2019-01-05T20:54:02.973Z,-12.29
2019-01-05T20:56:51.352Z,-12.07
2019-01-05T21:00:06.296Z,-12.04
2019-01-05T21:03:12.659Z,-12.90
2019-01-05T21:06:33.928Z,-13.03
2019-01-05T21:09:51.427Z,-12.98
2019-01-05T21:12:58.779Z,-12.85
2019-01-05T21:16:25.372Z,-12.41
2019-01-05T21:19:42.348Z,-12.28
2019-01-05T21:22:52.912Z,-12.88
2019-01-05T21:26:13.585Z,-14.00
2019-01-05T21:29:19.887Z,-14.00
2019-01-05T21:32:28.330Z,-13.68
2019-01-05T21:35:34.667Z,-13.68
2019-01-05T21:38:46.828Z,-13.08
2019-01-05T21:42:07.687Z,-13.63
2019-01-05T21:45:14.693Z,-13.63
2019-01-05T21:48:21.758Z,-13.23
2019-01-05T21:51:43.386Z,-14.29
2019-01-05T21:54:54.962Z,-14.11
2019-01-05T21:58:02.069Z,-14.16
2019-01-05T22:01:28.596Z,-14.60
2019-01-05T22:04:36.316Z,-14.60
2019-01-05T22:07:43.327Z,-13.81
2019-01-05T22:11:00.957Z,-13.21
2019-01-05T22:14:00.468Z,-13.21
2019-01-05T22:17:07.449Z,-12.92
2019-01-05T22:20:15.454Z,-13.51
2019-01-05T22:23:26.537Z,-13.77
2019-01-05T22:26:33.710Z,-13.58
2019-01-05T22:29:40.996Z,-12.77
2019-01-05T22:32:49.145Z,-12.77
2019-01-05T22:36:02.440Z,-12.80
2019-01-05T22:39:19.610Z,-12.26
2019-01-05T22:42:28.883Z,-11.87
2019-01-05T22:45:34.803Z,-11.85
2019-01-05T22:48:43.033Z,-12.10
2019-01-05T22:51:49.418Z,-11.88
2019-01-05T22:55:02.200Z,-11.73
2019-01-05T22:58:09.738Z,-11.46
2019-01-05T23:01:36.453Z,-11.01
2019-01-05T23:04:44.076Z,-11.01
2019-01-05T23:08:01.470Z,-11.16
2019-01-05T23:11:12.826Z,-11.63
2019-01-05T23:14:41.595Z,-12.95
2019-01-05T23:17:48.891Z,-12.97
2019-01-05T23:21:12.471Z,-12.97
2019-01-05T23:24:19.778Z,-12.35
2019-01-05T23:27:40.330Z,-12.03
2019-01-05T23:31:00.632Z,-11.60
2019-01-05T23:34:17.178Z,-11.21
2019-01-05T23:37:37.330Z,-11.37
2019-01-05T23:40:43.449Z,-11.13
2019-01-05T23:43:51.977Z,-10.85
2019-01-05T23:46:58.457Z,-10.84
2019-01-05T23:50:21.655Z,-10.68
2019-01-05T23:53:30.133Z,-10.79
2019-01-05T23:56:37.096Z,-10.78
2019-01-05T23:59:43.980Z,-10.91
